sensor_id;sensor_type;location;lat;lon;timestamp;P1;durP1;ratioP1;P2;durP2;ratioP2
27265;SDS011;14766;51.380;13.762;2023-03-17T00:00:24;6.95;;;3.47;;
27265;SDS011;14766;51.380;13.762;2023-03-17T00:02:51;5.45;;;3.30;;
27265;SDS011;14766;51.380;13.762;2023-03-17T00:05:19;6.15;;;3.28;;
27265;SDS011;14766;51.380;13.762;2023-03-17T00:07:49;7.88;;;3.72;;
27265;SDS011;14766;51.380;13.762;2023-03-17T00:10:20;6.55;;;4.25;;
27265;SDS011;14766;51.380;13.762;2023-03-17T00:12:51;6.90;;;3.50;;
27265;SDS011;14766;51.380;13.762;2023-03-17T00:15:22;7.95;;;3.67;;
27265;SDS011;14766;51.380;13.762;2023-03-17T00:17:53;7.90;;;3.50;;
27265;SDS011;14766;51.380;13.762;2023-03-17T00:20:23;6.78;;;3.30;;
27265;SDS011;14766;51.380;13.762;2023-03-17T00:22:56;5.53;;;3.50;;
27265;SDS011;14766;51.380;13.762;2023-03-17T00:25:26;7.65;;;3.72;;
27265;SDS011;14766;51.380;13.762;2023-03-17T00:27:55;9.77;;;3.78;;
27265;SDS011;14766;51.380;13.762;2023-03-17T00:30:26;5.90;;;3.30;;
27265;SDS011;14766;51.380;13.762;2023-03-17T00:32:55;7.07;;;3.15;;
27265;SDS011;14766;51.380;13.762;2023-03-17T00:35:24;6.05;;;3.65;;
27265;SDS011;14766;51.380;13.762;2023-03-17T00:37:55;5.60;;;3.75;;
27265;SDS011;14766;51.380;13.762;2023-03-17T00:40:24;6.35;;;3.47;;
27265;SDS011;14766;51.380;13.762;2023-03-17T00:42:57;8.13;;;4.00;;
27265;SDS011;14766;51.380;13.762;2023-03-17T00:45:28;8.00;;;4.35;;
27265;SDS011;14766;51.380;13.762;2023-03-17T00:47:56;5.38;;;3.67;;
27265;SDS011;14766;51.380;13.762;2023-03-17T00:50:24;7.32;;;3.75;;
27265;SDS011;14766;51.380;13.762;2023-03-17T00:52:55;7.32;;;3.92;;
27265;SDS011;14766;51.380;13.762;2023-03-17T00:55:24;7.15;;;3.65;;
27265;SDS011;14766;51.380;13.762;2023-03-17T00:57:52;6.53;;;3.72;;
27265;SDS011;14766;51.380;13.762;2023-03-17T01:00:21;5.85;;;3.28;;
27265;SDS011;14766;51.380;13.762;2023-03-17T01:02:54;8.63;;;4.07;;
27265;SDS011;14766;51.380;13.762;2023-03-17T01:05:23;6.75;;;3.67;;
27265;SDS011;14766;51.380;13.762;2023-03-17T01:07:54;7.90;;;4.10;;
27265;SDS011;14766;51.380;13.762;2023-03-17T01:10:24;9.10;;;4.07;;
27265;SDS011;14766;51.380;13.762;2023-03-17T01:12:55;7.10;;;3.67;;
27265;SDS011;14766;51.380;13.762;2023-03-17T01:15:25;6.45;;;3.80;;
27265;SDS011;14766;51.380;13.762;2023-03-17T01:18:00;7.43;;;3.65;;
27265;SDS011;14766;51.380;13.762;2023-03-17T01:20:31;6.05;;;3.33;;
27265;SDS011;14766;51.380;13.762;2023-03-17T01:23:00;5.95;;;3.30;;
27265;SDS011;14766;51.380;13.762;2023-03-17T01:25:28;7.45;;;3.88;;
27265;SDS011;14766;51.380;13.762;2023-03-17T01:27:55;7.07;;;3.58;;
27265;SDS011;14766;51.380;13.762;2023-03-17T01:30:25;8.32;;;3.88;;
27265;SDS011;14766;51.380;13.762;2023-03-17T01:32:55;6.40;;;3.72;;
27265;SDS011;14766;51.380;13.762;2023-03-17T01:35:25;5.88;;;3.47;;
27265;SDS011;14766;51.380;13.762;2023-03-17T01:37:55;6.85;;;3.60;;
27265;SDS011;14766;51.380;13.762;2023-03-17T01:40:27;6.28;;;3.80;;
27265;SDS011;14766;51.380;13.762;2023-03-17T01:49:00;7.95;;;3.55;;
27265;SDS011;14766;51.380;13.762;2023-03-17T01:51:37;6.75;;;3.35;;
27265;SDS011;14766;51.380;13.762;2023-03-17T01:54:11;7.10;;;3.78;;
27265;SDS011;14766;51.380;13.762;2023-03-17T01:56:46;7.75;;;4.20;;
27265;SDS011;14766;51.380;13.762;2023-03-17T01:59:18;7.45;;;4.05;;
27265;SDS011;14766;51.380;13.762;2023-03-17T02:01:49;8.32;;;3.53;;
27265;SDS011;14766;51.380;13.762;2023-03-17T02:04:20;5.85;;;3.15;;
27265;SDS011;14766;51.380;13.762;2023-03-17T02:06:48;6.22;;;3.60;;
27265;SDS011;14766;51.380;13.762;2023-03-17T02:09:24;4.80;;;3.10;;
27265;SDS011;14766;51.380;13.762;2023-03-17T02:11:52;6.32;;;3.08;;
27265;SDS011;14766;51.380;13.762;2023-03-17T02:14:21;6.82;;;3.35;;
27265;SDS011;14766;51.380;13.762;2023-03-17T02:16:49;7.95;;;3.65;;
27265;SDS011;14766;51.380;13.762;2023-03-17T02:19:16;7.68;;;3.83;;
27265;SDS011;14766;51.380;13.762;2023-03-17T02:26:48;5.70;;;3.40;;
27265;SDS011;14766;51.380;13.762;2023-03-17T02:29:20;8.05;;;3.75;;
27265;SDS011;14766;51.380;13.762;2023-03-17T02:31:48;5.63;;;3.13;;
27265;SDS011;14766;51.380;13.762;2023-03-17T02:34:16;6.00;;;3.20;;
27265;SDS011;14766;51.380;13.762;2023-03-17T02:36:43;6.78;;;3.72;;
27265;SDS011;14766;51.380;13.762;2023-03-17T02:39:13;5.82;;;3.35;;
27265;SDS011;14766;51.380;13.762;2023-03-17T02:41:41;6.43;;;3.25;;
27265;SDS011;14766;51.380;13.762;2023-03-17T02:44:09;5.63;;;3.58;;
27265;SDS011;14766;51.380;13.762;2023-03-17T02:46:36;6.80;;;3.22;;
27265;SDS011;14766;51.380;13.762;2023-03-17T02:49:03;6.63;;;3.08;;
27265;SDS011;14766;51.380;13.762;2023-03-17T02:51:31;6.25;;;3.40;;
27265;SDS011;14766;51.380;13.762;2023-03-17T02:53:58;6.50;;;3.63;;
27265;SDS011;14766;51.380;13.762;2023-03-17T02:56:25;6.70;;;3.35;;
27265;SDS011;14766;51.380;13.762;2023-03-17T02:58:53;5.70;;;3.40;;
27265;SDS011;14766;51.380;13.762;2023-03-17T03:01:21;7.47;;;3.10;;
27265;SDS011;14766;51.380;13.762;2023-03-17T03:03:48;4.93;;;3.05;;
27265;SDS011;14766;51.380;13.762;2023-03-17T03:06:15;8.27;;;4.20;;
27265;SDS011;14766;51.380;13.762;2023-03-17T03:08:43;5.05;;;3.10;;
27265;SDS011;14766;51.380;13.762;2023-03-17T03:11:10;6.00;;;3.42;;
27265;SDS011;14766;51.380;13.762;2023-03-17T03:13:37;6.43;;;3.33;;
27265;SDS011;14766;51.380;13.762;2023-03-17T03:16:04;5.95;;;3.22;;
27265;SDS011;14766;51.380;13.762;2023-03-17T03:18:32;6.35;;;3.30;;
27265;SDS011;14766;51.380;13.762;2023-03-17T03:20:59;6.55;;;3.00;;
27265;SDS011;14766;51.380;13.762;2023-03-17T03:23:26;6.93;;;3.78;;
27265;SDS011;14766;51.380;13.762;2023-03-17T03:25:54;5.82;;;2.92;;
27265;SDS011;14766;51.380;13.762;2023-03-17T03:28:21;5.20;;;2.97;;
27265;SDS011;14766;51.380;13.762;2023-03-17T03:30:48;7.57;;;3.80;;
27265;SDS011;14766;51.380;13.762;2023-03-17T03:33:16;5.93;;;3.47;;
27265;SDS011;14766;51.380;13.762;2023-03-17T03:35:44;5.28;;;3.00;;
27265;SDS011;14766;51.380;13.762;2023-03-17T03:38:11;7.60;;;3.72;;
27265;SDS011;14766;51.380;13.762;2023-03-17T03:40:39;7.25;;;3.70;;
27265;SDS011;14766;51.380;13.762;2023-03-17T03:43:06;6.32;;;4.22;;
27265;SDS011;14766;51.380;13.762;2023-03-17T03:45:48;5.45;;;3.17;;
27265;SDS011;14766;51.380;13.762;2023-03-17T03:48:16;8.02;;;3.90;;
27265;SDS011;14766;51.380;13.762;2023-03-17T03:50:44;6.97;;;3.67;;
27265;SDS011;14766;51.380;13.762;2023-03-17T03:53:11;7.65;;;3.83;;
27265;SDS011;14766;51.380;13.762;2023-03-17T03:55:39;6.18;;;3.60;;
27265;SDS011;14766;51.380;13.762;2023-03-17T03:58:07;6.25;;;3.17;;
27265;SDS011;14766;51.380;13.762;2023-03-17T04:00:34;6.38;;;3.58;;
27265;SDS011;14766;51.380;13.762;2023-03-17T04:03:01;6.90;;;3.45;;
27265;SDS011;14766;51.380;13.762;2023-03-17T04:05:29;6.88;;;3.75;;
27265;SDS011;14766;51.380;13.762;2023-03-17T04:07:56;7.10;;;3.47;;
27265;SDS011;14766;51.380;13.762;2023-03-17T04:10:23;5.65;;;3.63;;
27265;SDS011;14766;51.380;13.762;2023-03-17T04:12:50;7.18;;;4.03;;
27265;SDS011;14766;51.380;13.762;2023-03-17T04:15:18;7.03;;;4.20;;
27265;SDS011;14766;51.380;13.762;2023-03-17T04:17:45;7.03;;;3.78;;
27265;SDS011;14766;51.380;13.762;2023-03-17T04:20:13;7.35;;;3.95;;
27265;SDS011;14766;51.380;13.762;2023-03-17T04:22:41;6.82;;;4.03;;
27265;SDS011;14766;51.380;13.762;2023-03-17T04:25:10;7.15;;;3.72;;
27265;SDS011;14766;51.380;13.762;2023-03-17T04:27:40;9.00;;;3.88;;
27265;SDS011;14766;51.380;13.762;2023-03-17T04:30:10;7.25;;;4.07;;
27265;SDS011;14766;51.380;13.762;2023-03-17T04:32:39;7.75;;;3.90;;
27265;SDS011;14766;51.380;13.762;2023-03-17T04:35:09;6.45;;;3.90;;
27265;SDS011;14766;51.380;13.762;2023-03-17T04:37:39;10.23;;;4.80;;
27265;SDS011;14766;51.380;13.762;2023-03-17T04:40:07;9.15;;;4.20;;
27265;SDS011;14766;51.380;13.762;2023-03-17T04:42:36;6.25;;;3.53;;
27265;SDS011;14766;51.380;13.762;2023-03-17T04:45:04;6.63;;;3.85;;
27265;SDS011;14766;51.380;13.762;2023-03-17T04:47:32;6.72;;;3.45;;
27265;SDS011;14766;51.380;13.762;2023-03-17T04:49:59;7.55;;;4.22;;
27265;SDS011;14766;51.380;13.762;2023-03-17T04:52:27;7.80;;;3.67;;
27265;SDS011;14766;51.380;13.762;2023-03-17T04:54:54;6.97;;;3.95;;
27265;SDS011;14766;51.380;13.762;2023-03-17T04:57:22;5.82;;;4.15;;
27265;SDS011;14766;51.380;13.762;2023-03-17T04:59:50;7.15;;;4.00;;
27265;SDS011;14766;51.380;13.762;2023-03-17T05:02:17;7.03;;;3.90;;
27265;SDS011;14766;51.380;13.762;2023-03-17T05:04:44;6.03;;;3.50;;
27265;SDS011;14766;51.380;13.762;2023-03-17T05:07:12;5.85;;;3.50;;
27265;SDS011;14766;51.380;13.762;2023-03-17T05:09:40;5.30;;;3.63;;
27265;SDS011;14766;51.380;13.762;2023-03-17T05:12:07;5.50;;;3.75;;
27265;SDS011;14766;51.380;13.762;2023-03-17T05:14:36;6.65;;;3.60;;
27265;SDS011;14766;51.380;13.762;2023-03-17T05:17:03;7.55;;;3.85;;
27265;SDS011;14766;51.380;13.762;2023-03-17T05:19:30;6.97;;;4.28;;
27265;SDS011;14766;51.380;13.762;2023-03-17T05:21:57;5.78;;;3.53;;
27265;SDS011;14766;51.380;13.762;2023-03-17T05:24:25;6.65;;;3.50;;
27265;SDS011;14766;51.380;13.762;2023-03-17T05:26:52;6.43;;;3.38;;
27265;SDS011;14766;51.380;13.762;2023-03-17T05:29:19;8.95;;;4.18;;
27265;SDS011;14766;51.380;13.762;2023-03-17T05:31:46;9.20;;;4.20;;
27265;SDS011;14766;51.380;13.762;2023-03-17T05:34:14;6.68;;;4.32;;
27265;SDS011;14766;51.380;13.762;2023-03-17T05:36:41;9.98;;;4.20;;
27265;SDS011;14766;51.380;13.762;2023-03-17T05:39:09;7.97;;;4.07;;
27265;SDS011;14766;51.380;13.762;2023-03-17T05:41:39;6.78;;;4.03;;
27265;SDS011;14766;51.380;13.762;2023-03-17T05:44:07;9.95;;;4.57;;
27265;SDS011;14766;51.380;13.762;2023-03-17T05:46:34;6.82;;;3.72;;
27265;SDS011;14766;51.380;13.762;2023-03-17T05:49:02;7.30;;;4.05;;
27265;SDS011;14766;51.380;13.762;2023-03-17T05:51:29;5.97;;;4.20;;
27265;SDS011;14766;51.380;13.762;2023-03-17T05:53:57;11.35;;;4.63;;
27265;SDS011;14766;51.380;13.762;2023-03-17T05:56:24;7.22;;;3.78;;
27265;SDS011;14766;51.380;13.762;2023-03-17T05:58:59;7.82;;;4.10;;
27265;SDS011;14766;51.380;13.762;2023-03-17T06:01:27;6.80;;;4.00;;
27265;SDS011;14766;51.380;13.762;2023-03-17T06:03:54;10.07;;;4.40;;
27265;SDS011;14766;51.380;13.762;2023-03-17T06:06:22;7.70;;;4.30;;
27265;SDS011;14766;51.380;13.762;2023-03-17T06:08:50;10.13;;;4.57;;
27265;SDS011;14766;51.380;13.762;2023-03-17T06:11:18;7.43;;;4.10;;
27265;SDS011;14766;51.380;13.762;2023-03-17T06:13:47;7.20;;;4.28;;
27265;SDS011;14766;51.380;13.762;2023-03-17T06:16:14;8.70;;;4.45;;
27265;SDS011;14766;51.380;13.762;2023-03-17T06:18:42;6.97;;;4.30;;
27265;SDS011;14766;51.380;13.762;2023-03-17T06:21:11;7.03;;;4.57;;
27265;SDS011;14766;51.380;13.762;2023-03-17T06:23:38;11.02;;;5.03;;
27265;SDS011;14766;51.380;13.762;2023-03-17T06:26:06;7.70;;;4.15;;
27265;SDS011;14766;51.380;13.762;2023-03-17T06:28:33;7.68;;;3.92;;
27265;SDS011;14766;51.380;13.762;2023-03-17T06:31:00;8.38;;;4.22;;
27265;SDS011;14766;51.380;13.762;2023-03-17T06:33:29;6.55;;;3.80;;
27265;SDS011;14766;51.380;13.762;2023-03-17T06:35:56;7.10;;;4.20;;
27265;SDS011;14766;51.380;13.762;2023-03-17T06:38:24;8.50;;;4.13;;
27265;SDS011;14766;51.380;13.762;2023-03-17T06:40:51;5.07;;;3.67;;
27265;SDS011;14766;51.380;13.762;2023-03-17T06:43:20;6.10;;;3.92;;
27265;SDS011;14766;51.380;13.762;2023-03-17T06:45:50;6.80;;;3.85;;
27265;SDS011;14766;51.380;13.762;2023-03-17T06:48:18;6.30;;;3.97;;
27265;SDS011;14766;51.380;13.762;2023-03-17T06:50:45;8.52;;;4.47;;
27265;SDS011;14766;51.380;13.762;2023-03-17T06:53:15;8.23;;;4.55;;
27265;SDS011;14766;51.380;13.762;2023-03-17T06:55:43;7.90;;;4.18;;
27265;SDS011;14766;51.380;13.762;2023-03-17T06:58:11;8.60;;;4.53;;
27265;SDS011;14766;51.380;13.762;2023-03-17T07:00:38;8.25;;;4.38;;
27265;SDS011;14766;51.380;13.762;2023-03-17T07:03:06;5.68;;;3.78;;
27265;SDS011;14766;51.380;13.762;2023-03-17T07:05:35;5.57;;;3.70;;
27265;SDS011;14766;51.380;13.762;2023-03-17T07:08:06;7.25;;;3.85;;
27265;SDS011;14766;51.380;13.762;2023-03-17T07:10:34;8.57;;;3.63;;
27265;SDS011;14766;51.380;13.762;2023-03-17T07:13:02;6.90;;;3.60;;
27265;SDS011;14766;51.380;13.762;2023-03-17T07:15:31;6.63;;;4.32;;
27265;SDS011;14766;51.380;13.762;2023-03-17T07:18:01;7.10;;;3.88;;
27265;SDS011;14766;51.380;13.762;2023-03-17T07:20:29;6.07;;;3.88;;
27265;SDS011;14766;51.380;13.762;2023-03-17T07:22:56;5.00;;;3.55;;
27265;SDS011;14766;51.380;13.762;2023-03-17T07:25:24;5.93;;;3.38;;
27265;SDS011;14766;51.380;13.762;2023-03-17T07:27:51;5.68;;;3.40;;
27265;SDS011;14766;51.380;13.762;2023-03-17T07:30:19;5.30;;;3.40;;
27265;SDS011;14766;51.380;13.762;2023-03-17T07:32:46;4.80;;;3.03;;
27265;SDS011;14766;51.380;13.762;2023-03-17T07:35:14;7.28;;;3.47;;
27265;SDS011;14766;51.380;13.762;2023-03-17T07:37:41;5.00;;;3.38;;
27265;SDS011;14766;51.380;13.762;2023-03-17T07:40:09;5.13;;;3.33;;
27265;SDS011;14766;51.380;13.762;2023-03-17T07:42:37;5.22;;;3.50;;
27265;SDS011;14766;51.380;13.762;2023-03-17T07:45:05;6.30;;;3.40;;
27265;SDS011;14766;51.380;13.762;2023-03-17T07:47:33;5.20;;;3.25;;
27265;SDS011;14766;51.380;13.762;2023-03-17T07:50:00;4.88;;;2.88;;
27265;SDS011;14766;51.380;13.762;2023-03-17T07:52:28;5.40;;;3.20;;
27265;SDS011;14766;51.380;13.762;2023-03-17T07:54:55;5.25;;;2.70;;
27265;SDS011;14766;51.380;13.762;2023-03-17T07:57:23;5.75;;;3.50;;
27265;SDS011;14766;51.380;13.762;2023-03-17T07:59:50;5.38;;;3.00;;
27265;SDS011;14766;51.380;13.762;2023-03-17T08:02:18;6.60;;;3.15;;
27265;SDS011;14766;51.380;13.762;2023-03-17T08:04:46;7.95;;;3.72;;
27265;SDS011;14766;51.380;13.762;2023-03-17T08:07:13;4.50;;;3.13;;
27265;SDS011;14766;51.380;13.762;2023-03-17T08:09:41;6.22;;;3.22;;
27265;SDS011;14766;51.380;13.762;2023-03-17T08:12:08;7.18;;;3.55;;
27265;SDS011;14766;51.380;13.762;2023-03-17T08:14:36;6.25;;;3.53;;
27265;SDS011;14766;51.380;13.762;2023-03-17T08:17:03;8.98;;;4.07;;
27265;SDS011;14766;51.380;13.762;2023-03-17T08:19:32;6.20;;;3.03;;
27265;SDS011;14766;51.380;13.762;2023-03-17T08:21:59;5.70;;;3.00;;
27265;SDS011;14766;51.380;13.762;2023-03-17T08:24:27;5.75;;;2.92;;
27265;SDS011;14766;51.380;13.762;2023-03-17T08:26:54;6.43;;;3.40;;
27265;SDS011;14766;51.380;13.762;2023-03-17T08:29:25;4.75;;;3.05;;
27265;SDS011;14766;51.380;13.762;2023-03-17T08:31:52;5.47;;;3.30;;
27265;SDS011;14766;51.380;13.762;2023-03-17T08:34:19;3.60;;;2.67;;
27265;SDS011;14766;51.380;13.762;2023-03-17T08:36:46;4.70;;;2.92;;
27265;SDS011;14766;51.380;13.762;2023-03-17T08:39:13;5.20;;;2.72;;
27265;SDS011;14766;51.380;13.762;2023-03-17T08:41:41;5.00;;;2.72;;
27265;SDS011;14766;51.380;13.762;2023-03-17T08:44:08;3.92;;;2.97;;
27265;SDS011;14766;51.380;13.762;2023-03-17T08:46:36;5.38;;;3.03;;
27265;SDS011;14766;51.380;13.762;2023-03-17T08:49:03;6.30;;;3.13;;
27265;SDS011;14766;51.380;13.762;2023-03-17T08:51:31;4.38;;;2.60;;
27265;SDS011;14766;51.380;13.762;2023-03-17T08:54:00;4.03;;;2.90;;
27265;SDS011;14766;51.380;13.762;2023-03-17T08:56:28;3.72;;;2.53;;
27265;SDS011;14766;51.380;13.762;2023-03-17T08:58:56;4.53;;;3.10;;
27265;SDS011;14766;51.380;13.762;2023-03-17T09:01:24;4.70;;;3.20;;
27265;SDS011;14766;51.380;13.762;2023-03-17T09:03:53;5.05;;;2.70;;
27265;SDS011;14766;51.380;13.762;2023-03-17T09:06:20;4.53;;;2.88;;
27265;SDS011;14766;51.380;13.762;2023-03-17T09:08:48;4.57;;;2.80;;
27265;SDS011;14766;51.380;13.762;2023-03-17T09:11:22;3.45;;;2.50;;
27265;SDS011;14766;51.380;13.762;2023-03-17T09:13:52;3.60;;;2.40;;
27265;SDS011;14766;51.380;13.762;2023-03-17T09:16:20;6.80;;;2.75;;
27265;SDS011;14766;51.380;13.762;2023-03-17T09:18:49;4.38;;;2.53;;
27265;SDS011;14766;51.380;13.762;2023-03-17T09:21:17;3.53;;;2.20;;
27265;SDS011;14766;51.380;13.762;2023-03-17T09:23:44;3.95;;;2.42;;
27265;SDS011;14766;51.380;13.762;2023-03-17T09:26:12;3.17;;;2.20;;
27265;SDS011;14766;51.380;13.762;2023-03-17T09:28:39;5.20;;;2.80;;
27265;SDS011;14766;51.380;13.762;2023-03-17T09:31:07;3.78;;;2.42;;
27265;SDS011;14766;51.380;13.762;2023-03-17T09:33:37;4.38;;;2.50;;
27265;SDS011;14766;51.380;13.762;2023-03-17T09:36:08;4.85;;;2.55;;
27265;SDS011;14766;51.380;13.762;2023-03-17T09:38:37;4.40;;;2.70;;
27265;SDS011;14766;51.380;13.762;2023-03-17T09:44:01;3.50;;;1.90;;
27265;SDS011;14766;51.380;13.762;2023-03-17T09:46:52;3.95;;;2.60;;
27265;SDS011;14766;51.380;13.762;2023-03-17T09:49:40;4.70;;;2.70;;
27265;SDS011;14766;51.380;13.762;2023-03-17T09:52:15;4.00;;;2.90;;
27265;SDS011;14766;51.380;13.762;2023-03-17T09:54:54;4.65;;;2.80;;
27265;SDS011;14766;51.380;13.762;2023-03-17T09:57:29;3.35;;;2.20;;
27265;SDS011;14766;51.380;13.762;2023-03-17T10:00:12;5.70;;;2.63;;
27265;SDS011;14766;51.380;13.762;2023-03-17T10:02:40;7.27;;;3.13;;
27265;SDS011;14766;51.380;13.762;2023-03-17T10:10:33;4.40;;;2.30;;
27265;SDS011;14766;51.380;13.762;2023-03-17T10:13:25;4.15;;;2.35;;
27265;SDS011;14766;51.380;13.762;2023-03-17T10:18:50;5.00;;;2.65;;
27265;SDS011;14766;51.380;13.762;2023-03-17T10:21:27;4.75;;;2.65;;
27265;SDS011;14766;51.380;13.762;2023-03-17T10:23:58;5.20;;;2.60;;
27265;SDS011;14766;51.380;13.762;2023-03-17T10:26:32;5.32;;;2.85;;
27265;SDS011;14766;51.380;13.762;2023-03-17T10:29:10;4.43;;;2.58;;
27265;SDS011;14766;51.380;13.762;2023-03-17T10:31:49;4.88;;;2.58;;
27265;SDS011;14766;51.380;13.762;2023-03-17T10:34:37;4.25;;;2.65;;
27265;SDS011;14766;51.380;13.762;2023-03-17T10:37:26;7.72;;;2.58;;
27265;SDS011;14766;51.380;13.762;2023-03-17T10:39:55;5.18;;;2.40;;
27265;SDS011;14766;51.380;13.762;2023-03-17T10:42:29;4.10;;;2.20;;
27265;SDS011;14766;51.380;13.762;2023-03-17T10:47:37;4.72;;;2.58;;
27265;SDS011;14766;51.380;13.762;2023-03-17T10:52:46;3.38;;;2.10;;
27265;SDS011;14766;51.380;13.762;2023-03-17T10:55:18;4.13;;;2.28;;
27265;SDS011;14766;51.380;13.762;2023-03-17T10:58:34;4.55;;;2.85;;
27265;SDS011;14766;51.380;13.762;2023-03-17T11:00:36;3.15;;;2.00;;
27265;SDS011;14766;51.380;13.762;2023-03-17T11:03:14;4.15;;;2.20;;
27265;SDS011;14766;51.380;13.762;2023-03-17T11:05:59;5.15;;;2.53;;
27265;SDS011;14766;51.380;13.762;2023-03-17T11:08:30;3.83;;;2.63;;
27265;SDS011;14766;51.380;13.762;2023-03-17T11:11:05;4.72;;;3.10;;
27265;SDS011;14766;51.380;13.762;2023-03-17T11:13:34;4.90;;;2.30;;
27265;SDS011;14766;51.380;13.762;2023-03-17T11:16:09;3.13;;;2.30;;
27265;SDS011;14766;51.380;13.762;2023-03-17T11:18:51;6.25;;;2.50;;
27265;SDS011;14766;51.380;13.762;2023-03-17T11:24:18;3.30;;;2.05;;
27265;SDS011;14766;51.380;13.762;2023-03-17T11:32:27;3.92;;;2.08;;
27265;SDS011;14766;51.380;13.762;2023-03-17T11:40:33;3.90;;;2.03;;
27265;SDS011;14766;51.380;13.762;2023-03-17T11:49:02;3.75;;;2.40;;
27265;SDS011;14766;51.380;13.762;2023-03-17T11:51:52;4.22;;;2.40;;
27265;SDS011;14766;51.380;13.762;2023-03-17T11:54:45;2.70;;;2.03;;
27265;SDS011;14766;51.380;13.762;2023-03-17T11:57:39;4.00;;;2.30;;
27265;SDS011;14766;51.380;13.762;2023-03-17T12:00:24;3.53;;;1.80;;
27265;SDS011;14766;51.380;13.762;2023-03-17T12:02:55;3.15;;;2.20;;
27265;SDS011;14766;51.380;13.762;2023-03-17T12:05:34;3.60;;;2.38;;
27265;SDS011;14766;51.380;13.762;2023-03-17T12:08:11;5.95;;;2.25;;
27265;SDS011;14766;51.380;13.762;2023-03-17T12:11:04;3.35;;;2.10;;
27265;SDS011;14766;51.380;13.762;2023-03-17T12:13:44;3.50;;;2.17;;
27265;SDS011;14766;51.380;13.762;2023-03-17T12:21:49;6.55;;;2.55;;
27265;SDS011;14766;51.380;13.762;2023-03-17T12:24:30;5.22;;;2.50;;
27265;SDS011;14766;51.380;13.762;2023-03-17T12:27:24;4.63;;;2.58;;
27265;SDS011;14766;51.380;13.762;2023-03-17T12:29:59;6.00;;;2.63;;
27265;SDS011;14766;51.380;13.762;2023-03-17T12:32:43;5.35;;;2.92;;
27265;SDS011;14766;51.380;13.762;2023-03-17T12:35:33;4.30;;;2.55;;
27265;SDS011;14766;51.380;13.762;2023-03-17T12:38:06;4.63;;;2.13;;
27265;SDS011;14766;51.380;13.762;2023-03-17T12:41:13;4.68;;;2.65;;
27265;SDS011;14766;51.380;13.762;2023-03-17T12:43:58;6.50;;;2.75;;
27265;SDS011;14766;51.380;13.762;2023-03-17T12:49:44;3.33;;;2.30;;
27265;SDS011;14766;51.380;13.762;2023-03-17T12:55:11;6.97;;;2.50;;
27265;SDS011;14766;51.380;13.762;2023-03-17T12:57:44;3.28;;;2.30;;
27265;SDS011;14766;51.380;13.762;2023-03-17T13:00:15;3.08;;;2.50;;
27265;SDS011;14766;51.380;13.762;2023-03-17T13:03:04;4.63;;;2.85;;
27265;SDS011;14766;51.380;13.762;2023-03-17T13:05:45;4.70;;;2.70;;
27265;SDS011;14766;51.380;13.762;2023-03-17T13:08:20;3.90;;;2.30;;
27265;SDS011;14766;51.380;13.762;2023-03-17T13:16:30;5.18;;;2.58;;
27265;SDS011;14766;51.380;13.762;2023-03-17T13:19:13;4.50;;;2.45;;
27265;SDS011;14766;51.380;13.762;2023-03-17T13:24:19;5.93;;;2.83;;
27265;SDS011;14766;51.380;13.762;2023-03-17T13:26:54;5.18;;;3.10;;
27265;SDS011;14766;51.380;13.762;2023-03-17T13:29:24;5.13;;;2.50;;
27265;SDS011;14766;51.380;13.762;2023-03-17T13:34:44;3.35;;;2.13;;
27265;SDS011;14766;51.380;13.762;2023-03-17T13:39:58;5.07;;;3.03;;
27265;SDS011;14766;51.380;13.762;2023-03-17T13:48:44;4.40;;;2.83;;
27265;SDS011;14766;51.380;13.762;2023-03-17T13:50:58;4.78;;;2.78;;
27265;SDS011;14766;51.380;13.762;2023-03-17T13:53:28;4.93;;;3.28;;
27265;SDS011;14766;51.380;13.762;2023-03-17T13:56:09;4.88;;;3.45;;
27265;SDS011;14766;51.380;13.762;2023-03-17T13:58:50;5.63;;;3.05;;
27265;SDS011;14766;51.380;13.762;2023-03-17T14:01:18;3.80;;;2.80;;
27265;SDS011;14766;51.380;13.762;2023-03-17T14:03:48;3.90;;;2.97;;
27265;SDS011;14766;51.380;13.762;2023-03-17T14:06:17;6.07;;;2.70;;
27265;SDS011;14766;51.380;13.762;2023-03-17T14:08:51;5.30;;;3.03;;
27265;SDS011;14766;51.380;13.762;2023-03-17T14:11:54;4.85;;;2.70;;
27265;SDS011;14766;51.380;13.762;2023-03-17T14:14:21;6.70;;;3.67;;
27265;SDS011;14766;51.380;13.762;2023-03-17T14:17:19;4.53;;;3.42;;
27265;SDS011;14766;51.380;13.762;2023-03-17T14:20:06;5.95;;;3.67;;
27265;SDS011;14766;51.380;13.762;2023-03-17T14:25:20;7.05;;;3.75;;
27265;SDS011;14766;51.380;13.762;2023-03-17T14:27:52;4.82;;;3.53;;
27265;SDS011;14766;51.380;13.762;2023-03-17T14:30:23;5.38;;;3.70;;
27265;SDS011;14766;51.380;13.762;2023-03-17T14:33:12;5.47;;;3.50;;
27265;SDS011;14766;51.380;13.762;2023-03-17T14:35:48;5.57;;;3.45;;
27265;SDS011;14766;51.380;13.762;2023-03-17T14:38:29;5.38;;;3.38;;
27265;SDS011;14766;51.380;13.762;2023-03-17T14:41:02;5.18;;;3.30;;
27265;SDS011;14766;51.380;13.762;2023-03-17T14:43:42;5.22;;;3.38;;
27265;SDS011;14766;51.380;13.762;2023-03-17T14:48:45;5.03;;;3.53;;
27265;SDS011;14766;51.380;13.762;2023-03-17T14:53:45;8.30;;;3.72;;
27265;SDS011;14766;51.380;13.762;2023-03-17T14:56:12;6.32;;;3.65;;
27265;SDS011;14766;51.380;13.762;2023-03-17T15:04:06;4.57;;;3.75;;
27265;SDS011;14766;51.380;13.762;2023-03-17T15:06:47;5.57;;;3.30;;
27265;SDS011;14766;51.380;13.762;2023-03-17T15:09:37;5.00;;;3.42;;
27265;SDS011;14766;51.380;13.762;2023-03-17T15:12:12;6.43;;;3.95;;
27265;SDS011;14766;51.380;13.762;2023-03-17T15:14:44;5.43;;;3.50;;
27265;SDS011;14766;51.380;13.762;2023-03-17T15:17:16;5.70;;;3.92;;
27265;SDS011;14766;51.380;13.762;2023-03-17T15:19:49;5.40;;;4.03;;
27265;SDS011;14766;51.380;13.762;2023-03-17T15:27:41;7.20;;;4.40;;
27265;SDS011;14766;51.380;13.762;2023-03-17T15:30:09;9.32;;;5.07;;
27265;SDS011;14766;51.380;13.762;2023-03-17T15:32:38;8.02;;;4.78;;
27265;SDS011;14766;51.380;13.762;2023-03-17T15:35:06;6.38;;;4.53;;
27265;SDS011;14766;51.380;13.762;2023-03-17T15:37:37;11.02;;;5.20;;
27265;SDS011;14766;51.380;13.762;2023-03-17T15:40:05;6.65;;;4.55;;
27265;SDS011;14766;51.380;13.762;2023-03-17T15:42:33;8.05;;;4.90;;
27265;SDS011;14766;51.380;13.762;2023-03-17T15:45:12;6.63;;;4.28;;
27265;SDS011;14766;51.380;13.762;2023-03-17T15:47:46;5.97;;;4.03;;
27265;SDS011;14766;51.380;13.762;2023-03-17T15:50:15;6.63;;;4.78;;
27265;SDS011;14766;51.380;13.762;2023-03-17T15:52:47;9.18;;;5.55;;
27265;SDS011;14766;51.380;13.762;2023-03-17T15:55:17;8.80;;;5.63;;
27265;SDS011;14766;51.380;13.762;2023-03-17T15:57:54;7.10;;;4.80;;
27265;SDS011;14766;51.380;13.762;2023-03-17T16:00:23;8.00;;;4.78;;
27265;SDS011;14766;51.380;13.762;2023-03-17T16:02:52;9.77;;;5.45;;
27265;SDS011;14766;51.380;13.762;2023-03-17T16:05:22;7.38;;;4.97;;
27265;SDS011;14766;51.380;13.762;2023-03-17T16:07:51;7.35;;;4.75;;
27265;SDS011;14766;51.380;13.762;2023-03-17T16:10:26;8.43;;;5.50;;
27265;SDS011;14766;51.380;13.762;2023-03-17T16:12:55;7.05;;;4.57;;
27265;SDS011;14766;51.380;13.762;2023-03-17T16:15:24;7.10;;;5.32;;
27265;SDS011;14766;51.380;13.762;2023-03-17T16:17:54;8.15;;;5.47;;
27265;SDS011;14766;51.380;13.762;2023-03-17T16:20:26;7.90;;;5.70;;
27265;SDS011;14766;51.380;13.762;2023-03-17T16:23:05;7.43;;;5.23;;
27265;SDS011;14766;51.380;13.762;2023-03-17T16:25:40;8.40;;;5.32;;
27265;SDS011;14766;51.380;13.762;2023-03-17T16:30:49;6.75;;;4.95;;
27265;SDS011;14766;51.380;13.762;2023-03-17T16:33:37;9.57;;;5.85;;
27265;SDS011;14766;51.380;13.762;2023-03-17T16:36:08;9.63;;;5.57;;